createdAt,value
2023-05-17T00:01:57.403Z,100.00
2023-05-17T00:04:25.000Z,100.00
2023-05-17T00:06:52.256Z,100.00
2023-05-17T00:09:19.878Z,100.00
2023-05-17T00:11:47.098Z,100.00
2023-05-17T00:14:14.669Z,100.00
2023-05-17T00:16:42.034Z,100.00
2023-05-17T00:19:09.835Z,100.00
2023-05-17T00:21:37.361Z,100.00
2023-05-17T00:24:05.299Z,100.00
2023-05-17T00:26:34.158Z,100.00
2023-05-17T00:29:01.800Z,100.00
2023-05-17T00:31:29.332Z,100.00
2023-05-17T00:33:56.895Z,100.00
2023-05-17T00:36:24.373Z,100.00
2023-05-17T00:38:51.926Z,99.97
2023-05-17T00:41:19.232Z,100.00
2023-05-17T00:43:46.900Z,98.76
2023-05-17T00:46:14.306Z,99.87
2023-05-17T00:48:42.934Z,99.80
2023-05-17T00:51:12.171Z,99.70
2023-05-17T00:53:39.760Z,100.00
2023-05-17T00:56:07.384Z,100.00
2023-05-17T00:58:36.984Z,100.00
2023-05-17T01:01:06.099Z,100.00
2023-05-17T01:03:33.826Z,100.00
2023-05-17T01:06:01.199Z,100.00
2023-05-17T01:08:29.875Z,99.88
2023-05-17T01:11:24.436Z,100.00
2023-05-17T01:14:27.546Z,100.00
2023-05-17T01:17:07.336Z,100.00
2023-05-17T01:19:34.971Z,100.00
2023-05-17T01:22:28.534Z,100.00
2023-05-17T01:25:30.603Z,100.00
2023-05-17T01:28:01.570Z,100.00
2023-05-17T01:30:30.403Z,100.00
2023-05-17T01:32:59.509Z,100.00
2023-05-17T01:35:27.428Z,100.00
2023-05-17T01:37:55.949Z,100.00
2023-05-17T01:40:24.183Z,100.00
2023-05-17T01:42:58.220Z,100.00
2023-05-17T01:45:36.171Z,100.00
2023-05-17T01:48:21.050Z,100.00
2023-05-17T01:50:54.557Z,100.00
2023-05-17T01:53:45.460Z,100.00
2023-05-17T01:56:33.718Z,100.00
2023-05-17T01:59:04.669Z,100.00
2023-05-17T02:01:32.967Z,100.00
2023-05-17T02:04:00.255Z,100.00
2023-05-17T02:06:27.931Z,100.00
2023-05-17T02:08:55.144Z,100.00
2023-05-17T02:11:23.654Z,100.00
2023-05-17T02:13:53.159Z,100.00
2023-05-17T02:16:21.005Z,100.00
2023-05-17T02:18:50.209Z,100.00
2023-05-17T02:21:18.704Z,100.00
2023-05-17T02:23:46.217Z,100.00
2023-05-17T02:26:13.731Z,100.00
2023-05-17T02:28:41.240Z,99.84
2023-05-17T02:31:09.537Z,99.03
2023-05-17T02:33:37.579Z,98.12
2023-05-17T02:36:05.490Z,97.05
2023-05-17T02:38:32.709Z,97.57
2023-05-17T02:41:00.255Z,96.74
2023-05-17T02:43:27.552Z,95.97
2023-05-17T02:45:55.133Z,95.35
2023-05-17T02:48:22.439Z,94.86
2023-05-17T02:50:49.994Z,94.71
2023-05-17T02:53:17.515Z,94.46
2023-05-17T02:55:45.084Z,93.24
2023-05-17T02:58:13.283Z,93.51
2023-05-17T03:00:45.762Z,92.11
2023-05-17T03:03:13.865Z,91.70
2023-05-17T03:05:41.529Z,91.29
2023-05-17T03:08:09.470Z,91.49
2023-05-17T03:10:37.066Z,89.96
2023-05-17T03:13:05.070Z,89.01
2023-05-17T03:15:36.607Z,87.76
2023-05-17T03:18:04.534Z,86.60
2023-05-17T03:20:32.272Z,85.03
2023-05-17T03:22:59.558Z,83.79
2023-05-17T03:25:27.971Z,83.62
2023-05-17T03:27:56.250Z,83.47
2023-05-17T03:30:24.069Z,81.97
2023-05-17T03:32:53.338Z,80.39
2023-05-17T03:35:21.121Z,80.14
2023-05-17T03:37:52.338Z,78.93
2023-05-17T03:40:19.866Z,77.32
2023-05-17T03:42:47.374Z,74.51
2023-05-17T03:45:16.538Z,75.15
2023-05-17T03:47:43.857Z,70.96
2023-05-17T03:50:12.647Z,73.73
2023-05-17T03:52:42.173Z,73.28
2023-05-17T03:55:09.896Z,72.46
2023-05-17T03:57:37.264Z,73.04
2023-05-17T04:00:09.324Z,73.10
2023-05-17T04:02:42.032Z,73.53
2023-05-17T04:05:10.886Z,72.39
2023-05-17T04:07:38.182Z,72.21
2023-05-17T04:10:06.154Z,70.18
2023-05-17T04:12:33.545Z,71.62
2023-05-17T04:15:01.898Z,71.97
2023-05-17T04:17:30.155Z,70.19
2023-05-17T04:19:57.986Z,68.94
2023-05-17T04:22:25.704Z,70.52
2023-05-17T04:24:53.213Z,69.66
2023-05-17T04:27:22.030Z,67.70
2023-05-17T04:29:49.780Z,67.27
2023-05-17T04:32:18.170Z,67.68
2023-05-17T04:34:45.950Z,66.30
2023-05-17T04:37:13.337Z,66.61
2023-05-17T04:39:41.382Z,65.42
2023-05-17T04:42:09.307Z,65.55
2023-05-17T04:44:41.559Z,65.00
2023-05-17T04:47:10.278Z,63.98
2023-05-17T04:49:37.979Z,67.10
2023-05-17T04:52:06.276Z,65.24
2023-05-17T04:54:35.692Z,67.47
2023-05-17T04:57:03.814Z,64.41
2023-05-17T04:59:55.037Z,67.43
2023-05-17T05:02:22.424Z,65.20
2023-05-17T05:04:50.221Z,63.53
2023-05-17T05:07:18.097Z,62.81
2023-05-17T05:09:47.082Z,61.94
2023-05-17T05:12:16.285Z,58.66
2023-05-17T05:14:44.244Z,55.23
2023-05-17T05:17:11.674Z,51.83
2023-05-17T05:19:41.229Z,46.93
2023-05-17T05:22:08.886Z,43.27
2023-05-17T05:24:38.106Z,37.98
2023-05-17T05:27:07.079Z,33.84
2023-05-17T05:29:35.173Z,34.80
2023-05-17T05:32:02.908Z,32.26
2023-05-17T05:34:33.369Z,30.39
2023-05-17T05:37:00.770Z,29.24
2023-05-17T05:39:28.314Z,27.10
2023-05-17T05:41:55.779Z,26.87
2023-05-17T05:44:25.218Z,27.49
2023-05-17T05:46:53.509Z,26.86
2023-05-17T05:49:21.678Z,24.35
2023-05-17T05:51:49.225Z,23.66
2023-05-17T05:54:18.460Z,25.86
2023-05-17T05:56:46.142Z,24.13
2023-05-17T05:59:15.630Z,24.62
2023-05-17T06:01:43.866Z,23.77
2023-05-17T06:04:11.464Z,22.87
2023-05-17T06:06:38.760Z,22.01
2023-05-17T06:09:07.536Z,23.06
2023-05-17T06:11:35.049Z,22.05
2023-05-17T06:14:02.636Z,22.73
2023-05-17T06:16:29.885Z,20.85
2023-05-17T06:18:57.545Z,22.11
2023-05-17T06:21:25.549Z,19.77
2023-05-17T06:23:53.304Z,19.56
2023-05-17T06:26:20.767Z,19.90
2023-05-17T06:28:48.303Z,20.05
2023-05-17T06:31:15.883Z,18.23
2023-05-17T06:33:43.501Z,18.07
2023-05-17T06:36:11.009Z,17.79
2023-05-17T06:38:38.531Z,18.50
2023-05-17T06:41:06.078Z,19.35
2023-05-17T06:43:35.512Z,18.05
2023-05-17T06:46:03.704Z,18.37
2023-05-17T06:48:31.392Z,19.20
2023-05-17T06:50:58.805Z,17.11
2023-05-17T06:53:27.327Z,17.96
2023-05-17T06:55:54.653Z,17.64
2023-05-17T06:58:22.288Z,17.06
2023-05-17T07:00:49.579Z,16.91
2023-05-17T07:03:17.166Z,16.69
2023-05-17T07:05:44.486Z,19.31
2023-05-17T07:08:12.173Z,21.86
2023-05-17T07:10:39.417Z,22.57
2023-05-17T07:13:07.018Z,24.42
2023-05-17T07:15:34.283Z,28.17
2023-05-17T07:18:04.167Z,30.15
2023-05-17T07:20:31.553Z,33.08
2023-05-17T07:22:59.124Z,35.24
2023-05-17T07:25:26.519Z,41.03
2023-05-17T07:27:54.193Z,43.33
2023-05-17T07:30:21.483Z,47.85
2023-05-17T07:32:49.116Z,46.60
2023-05-17T07:35:16.534Z,47.06
2023-05-17T07:37:44.275Z,45.72
2023-05-17T07:40:12.132Z,44.97
2023-05-17T07:42:39.716Z,44.37
2023-05-17T07:45:07.734Z,45.08
2023-05-17T07:47:35.391Z,44.53
2023-05-17T07:50:04.176Z,44.35
2023-05-17T07:52:31.763Z,46.89
2023-05-17T07:54:59.043Z,47.63
2023-05-17T07:57:27.523Z,49.23
2023-05-17T07:59:54.786Z,47.67
2023-05-17T08:02:22.401Z,46.85
2023-05-17T08:04:49.798Z,49.71
2023-05-17T08:07:17.514Z,47.80
2023-05-17T08:09:45.592Z,47.17
2023-05-17T08:12:13.167Z,47.18
2023-05-17T08:14:40.733Z,48.08
2023-05-17T08:17:08.348Z,46.97
2023-05-17T08:19:36.162Z,43.26
2023-05-17T08:22:03.983Z,43.53
2023-05-17T08:24:31.285Z,44.85
2023-05-17T08:27:01.563Z,46.10
2023-05-17T08:29:28.838Z,38.41
2023-05-17T08:31:56.463Z,33.49
2023-05-17T08:34:24.011Z,31.09
2023-05-17T08:36:51.809Z,32.55
2023-05-17T08:39:20.659Z,34.33
2023-05-17T08:41:48.668Z,37.07
2023-05-17T08:44:19.116Z,39.52
2023-05-17T08:46:53.763Z,41.02
2023-05-17T08:49:26.435Z,43.33
2023-05-17T08:51:55.496Z,43.78
2023-05-17T08:54:23.074Z,46.99
2023-05-17T08:56:54.025Z,46.51
2023-05-17T08:59:22.529Z,48.63
2023-05-17T09:01:54.252Z,47.50
2023-05-17T09:04:22.386Z,48.25
2023-05-17T09:06:50.748Z,47.54
2023-05-17T09:09:19.023Z,46.92
2023-05-17T09:11:47.570Z,47.35
2023-05-17T09:14:17.413Z,42.75
2023-05-17T09:16:45.109Z,39.74
2023-05-17T09:19:17.707Z,40.10
2023-05-17T09:21:48.883Z,39.17
2023-05-17T09:24:20.318Z,37.42
2023-05-17T09:26:47.844Z,33.11
2023-05-17T09:29:16.922Z,33.11
2023-05-17T09:31:44.938Z,33.93
2023-05-17T09:34:12.874Z,35.19
2023-05-17T09:36:44.207Z,37.45
2023-05-17T09:39:13.642Z,38.82
2023-05-17T09:41:45.250Z,39.66
2023-05-17T09:44:14.029Z,39.91
2023-05-17T09:46:47.419Z,39.63
2023-05-17T09:49:16.187Z,37.69
2023-05-17T09:51:45.933Z,35.63
2023-05-17T09:54:14.127Z,35.75
2023-05-17T09:56:42.255Z,37.37
2023-05-17T09:59:16.688Z,35.91
2023-05-17T10:01:45.801Z,34.00
2023-05-17T10:04:14.323Z,30.42
2023-05-17T10:06:49.671Z,27.89
2023-05-17T10:09:22.357Z,28.07
2023-05-17T10:11:53.051Z,28.04
2023-05-17T10:14:27.811Z,29.55
2023-05-17T10:16:56.410Z,29.52
2023-05-17T10:19:25.183Z,31.62
2023-05-17T10:21:54.149Z,32.89
2023-05-17T10:24:22.942Z,31.63
2023-05-17T10:26:51.395Z,30.40
2023-05-17T10:29:22.455Z,28.90
2023-05-17T10:31:51.997Z,29.43
2023-05-17T10:34:20.716Z,28.00
2023-05-17T10:36:52.142Z,27.29
2023-05-17T10:39:22.159Z,26.21
2023-05-17T10:41:54.023Z,25.88
2023-05-17T10:44:30.595Z,27.74
2023-05-17T10:46:59.716Z,27.99
2023-05-17T10:49:30.409Z,28.07
2023-05-17T10:51:59.646Z,27.55
2023-05-17T10:54:39.345Z,26.51
2023-05-17T10:57:08.981Z,27.46
2023-05-17T10:59:36.586Z,28.58
2023-05-17T11:02:10.191Z,28.43
2023-05-17T11:04:39.144Z,29.23
2023-05-17T11:07:19.333Z,28.93
2023-05-17T11:09:50.109Z,30.57
2023-05-17T11:12:30.194Z,30.06
2023-05-17T11:14:59.129Z,29.60
2023-05-17T11:17:34.219Z,30.85
2023-05-17T11:20:05.592Z,31.11
2023-05-17T11:22:44.067Z,30.59
2023-05-17T11:25:13.670Z,30.36
2023-05-17T11:27:52.498Z,30.59
2023-05-17T11:30:31.080Z,30.93
2023-05-17T11:33:02.801Z,30.91
2023-05-17T11:35:35.987Z,29.66
2023-05-17T11:38:18.997Z,30.48
2023-05-17T11:40:47.832Z,30.49
2023-05-17T11:43:27.521Z,31.91
2023-05-17T11:46:03.886Z,33.37
2023-05-17T11:48:32.310Z,34.82
2023-05-17T11:51:02.170Z,33.80
2023-05-17T11:53:31.872Z,34.66
2023-05-17T11:56:04.679Z,34.85
2023-05-17T11:58:32.697Z,34.02
2023-05-17T12:00:59.981Z,34.91
2023-05-17T12:03:32.603Z,35.60
2023-05-17T12:06:10.121Z,35.52
2023-05-17T12:08:40.167Z,37.29
2023-05-17T12:11:10.985Z,35.86
2023-05-17T12:13:41.902Z,36.41
2023-05-17T12:16:16.807Z,37.25
2023-05-17T12:18:49.713Z,37.05
2023-05-17T12:21:19.213Z,36.70
2023-05-17T12:23:51.139Z,38.17
2023-05-17T12:26:19.435Z,36.78
2023-05-17T12:28:54.716Z,37.42
2023-05-17T12:31:32.554Z,39.23
2023-05-17T12:34:02.767Z,39.01
2023-05-17T12:36:32.175Z,38.06
2023-05-17T12:39:01.413Z,38.57
2023-05-17T12:41:30.408Z,39.52
2023-05-17T12:44:13.751Z,40.71
2023-05-17T12:46:42.972Z,40.46
2023-05-17T12:49:14.545Z,39.25
2023-05-17T12:51:47.025Z,38.24
2023-05-17T12:54:25.111Z,38.82
2023-05-17T12:56:52.615Z,39.57
2023-05-17T12:59:28.877Z,40.07
2023-05-17T13:01:57.970Z,39.14
2023-05-17T13:04:32.241Z,40.04
2023-05-17T13:07:02.320Z,39.62
2023-05-17T13:09:31.361Z,39.50
2023-05-17T13:12:05.458Z,39.21
2023-05-17T13:14:46.628Z,38.20
2023-05-17T13:17:24.909Z,38.06
2023-05-17T13:19:53.492Z,37.30
2023-05-17T13:22:20.927Z,37.98
2023-05-17T13:24:48.479Z,38.10
2023-05-17T13:27:15.993Z,39.36
2023-05-17T13:29:44.137Z,39.74
2023-05-17T13:32:13.832Z,39.61
2023-05-17T13:34:41.673Z,38.50
2023-05-17T13:37:12.182Z,37.85
2023-05-17T13:39:41.918Z,38.41
2023-05-17T13:42:10.942Z,38.51
2023-05-17T13:44:39.483Z,38.58
2023-05-17T13:47:07.270Z,39.43
2023-05-17T13:49:34.911Z,38.63
2023-05-17T13:52:02.420Z,38.51
2023-05-17T13:54:30.014Z,38.34
2023-05-17T13:56:57.677Z,38.67
2023-05-17T13:59:25.392Z,37.66
2023-05-17T14:01:53.172Z,38.40
2023-05-17T14:04:21.441Z,38.38
2023-05-17T14:06:51.150Z,39.72
2023-05-17T14:09:20.463Z,40.16
2023-05-17T14:11:47.740Z,39.34
2023-05-17T14:14:15.276Z,38.67
2023-05-17T14:16:42.564Z,39.74
2023-05-17T14:19:10.257Z,39.23
2023-05-17T14:21:37.572Z,38.45
2023-05-17T14:24:05.460Z,39.75
2023-05-17T14:26:32.788Z,39.85
2023-05-17T14:29:00.443Z,39.17
2023-05-17T14:31:29.974Z,38.35
2023-05-17T14:33:57.774Z,39.06
2023-05-17T14:36:25.142Z,38.75
2023-05-17T14:38:52.810Z,39.92
2023-05-17T14:41:20.273Z,39.81
2023-05-17T14:43:47.915Z,38.90
2023-05-17T14:46:15.145Z,40.07
2023-05-17T14:48:42.752Z,40.52
2023-05-17T14:51:10.113Z,39.67
2023-05-17T14:53:37.740Z,40.20
2023-05-17T14:56:05.370Z,40.93
2023-05-17T14:58:33.002Z,40.53
2023-05-17T15:03:30.827Z,41.48
2023-05-17T15:05:58.560Z,40.87
2023-05-17T15:08:27.397Z,41.00
2023-05-17T15:10:54.714Z,41.90
2023-05-17T15:13:22.554Z,41.56
2023-05-17T15:15:49.784Z,42.36
2023-05-17T15:18:17.397Z,42.72
2023-05-17T15:20:44.700Z,41.77
2023-05-17T15:23:12.527Z,41.82
2023-05-17T15:25:39.800Z,41.66
2023-05-17T15:28:07.449Z,41.29
2023-05-17T15:30:34.725Z,41.20
2023-05-17T15:33:02.867Z,40.87
2023-05-17T15:35:30.527Z,42.00
2023-05-17T15:37:59.540Z,42.53
2023-05-17T15:40:26.857Z,42.43
2023-05-17T15:42:54.390Z,44.23
2023-05-17T15:45:21.942Z,42.75
2023-05-17T15:47:49.727Z,44.04
2023-05-17T15:50:17.176Z,43.39
2023-05-17T15:52:45.987Z,42.80
2023-05-17T15:55:13.399Z,42.51
2023-05-17T15:57:41.499Z,43.79
2023-05-17T16:00:09.570Z,42.81
2023-05-17T16:02:37.256Z,42.00
2023-05-17T16:05:05.319Z,41.57
2023-05-17T16:07:32.961Z,41.76
2023-05-17T16:10:00.246Z,42.14
2023-05-17T16:12:27.867Z,41.42
2023-05-17T16:14:55.092Z,41.50
2023-05-17T16:17:22.712Z,41.68
2023-05-17T16:19:50.079Z,41.58
2023-05-17T16:22:17.644Z,41.25
2023-05-17T16:24:45.045Z,41.63
2023-05-17T16:27:12.691Z,42.83
2023-05-17T16:29:40.404Z,41.50
2023-05-17T16:32:08.472Z,42.94
2023-05-17T16:34:36.390Z,41.75
2023-05-17T16:37:04.839Z,42.65
2023-05-17T16:39:33.113Z,42.53
2023-05-17T16:42:00.837Z,42.19
2023-05-17T16:44:28.264Z,42.37
2023-05-17T16:46:56.118Z,42.32
2023-05-17T16:49:23.398Z,42.78
2023-05-17T16:51:52.381Z,43.81
2023-05-17T16:54:19.776Z,43.77
2023-05-17T16:56:47.758Z,44.41
2023-05-17T16:59:15.955Z,44.32
2023-05-17T17:01:43.707Z,44.04
2023-05-17T17:04:11.175Z,44.45
2023-05-17T17:06:38.899Z,45.71
2023-05-17T17:09:08.377Z,45.14
2023-05-17T17:11:36.052Z,46.42
2023-05-17T17:14:03.298Z,45.55
2023-05-17T17:16:31.774Z,45.94
2023-05-17T17:18:59.523Z,46.47
2023-05-17T17:21:27.159Z,46.81
2023-05-17T17:23:54.373Z,46.63
2023-05-17T17:26:22.140Z,47.00
2023-05-17T17:28:49.427Z,46.91
2023-05-17T17:31:18.315Z,47.03
2023-05-17T17:33:45.651Z,47.61
2023-05-17T17:36:13.235Z,47.58
2023-05-17T17:38:40.631Z,47.18
2023-05-17T17:41:08.209Z,48.37
2023-05-17T17:43:35.857Z,48.41
2023-05-17T17:46:03.775Z,48.84
2023-05-17T17:48:31.361Z,48.93
2023-05-17T17:50:59.219Z,48.90
2023-05-17T17:53:26.670Z,48.85
2023-05-17T17:55:54.242Z,48.59
2023-05-17T17:58:21.545Z,48.88
2023-05-17T18:00:49.418Z,48.68
2023-05-17T18:03:16.871Z,49.40
2023-05-17T18:05:44.488Z,49.71
2023-05-17T18:08:11.752Z,50.94
2023-05-17T18:10:39.311Z,49.87
2023-05-17T18:13:06.782Z,50.45
2023-05-17T18:15:34.364Z,50.43
2023-05-17T18:18:01.623Z,51.57
2023-05-17T18:20:29.597Z,51.20
2023-05-17T18:22:57.085Z,51.30
2023-05-17T18:25:24.682Z,52.05
2023-05-17T18:27:51.900Z,52.40
2023-05-17T18:30:19.566Z,53.17
2023-05-17T18:32:46.920Z,54.23
2023-05-17T18:35:14.657Z,55.83
2023-05-17T18:37:41.919Z,54.90
2023-05-17T18:40:09.859Z,54.85
2023-05-17T18:42:37.148Z,55.15
2023-05-17T18:45:05.249Z,56.01
2023-05-17T18:47:32.600Z,55.22
2023-05-17T18:50:00.168Z,55.51
2023-05-17T18:52:27.424Z,55.88
2023-05-17T18:54:54.985Z,56.22
2023-05-17T18:57:22.255Z,56.82
2023-05-17T18:59:49.790Z,57.95
2023-05-17T19:02:17.066Z,57.95
2023-05-17T19:04:44.948Z,58.01
2023-05-17T19:07:12.249Z,58.21
2023-05-17T19:09:39.825Z,58.55
2023-05-17T19:12:07.487Z,58.69
2023-05-17T19:14:35.154Z,58.30
2023-05-17T19:17:02.512Z,59.75
2023-05-17T19:19:31.372Z,60.19
2023-05-17T19:22:00.706Z,59.96
2023-05-17T19:24:28.413Z,60.17
2023-05-17T19:26:55.761Z,60.75
2023-05-17T19:29:23.346Z,61.13
2023-05-17T19:31:51.161Z,61.03
2023-05-17T19:34:18.902Z,60.87
2023-05-17T19:36:46.194Z,60.32
2023-05-17T19:39:14.028Z,61.08
2023-05-17T19:41:41.396Z,60.64
2023-05-17T19:44:08.958Z,60.54
2023-05-17T19:46:36.273Z,60.51
2023-05-17T19:49:04.670Z,60.04
2023-05-17T19:51:32.110Z,61.24
2023-05-17T19:53:59.668Z,61.83
2023-05-17T19:56:27.155Z,61.04
2023-05-17T19:58:54.962Z,60.66
2023-05-17T20:01:22.243Z,60.34
2023-05-17T20:03:49.951Z,61.23
2023-05-17T20:06:17.270Z,62.39
2023-05-17T20:08:45.523Z,64.56
2023-05-17T20:11:13.217Z,64.25
2023-05-17T20:13:41.004Z,64.61
2023-05-17T20:16:13.004Z,65.01
2023-05-17T20:18:44.979Z,65.08
2023-05-17T20:21:15.461Z,65.49
2023-05-17T20:23:43.343Z,66.64
2023-05-17T20:26:16.789Z,66.08
2023-05-17T20:28:44.916Z,66.85
2023-05-17T20:31:12.545Z,68.47
2023-05-17T20:33:40.171Z,67.47
2023-05-17T20:36:07.611Z,68.04
2023-05-17T20:38:35.182Z,69.74
2023-05-17T20:41:03.220Z,69.06
2023-05-17T20:43:30.769Z,69.38
2023-05-17T20:45:58.076Z,69.41
2023-05-17T20:48:25.848Z,69.65
2023-05-17T20:50:53.240Z,69.22
2023-05-17T20:53:20.873Z,71.28
2023-05-17T20:55:49.388Z,70.31
2023-05-17T20:58:17.023Z,70.93
2023-05-17T21:00:44.454Z,71.78
2023-05-17T21:03:12.075Z,72.82
2023-05-17T21:05:39.416Z,72.54
2023-05-17T21:08:12.957Z,73.19
2023-05-17T21:10:42.820Z,73.28
2023-05-17T21:13:10.423Z,73.98
2023-05-17T21:15:37.748Z,73.21
2023-05-17T21:18:06.839Z,72.68
2023-05-17T21:20:34.150Z,72.45
2023-05-17T21:23:01.685Z,71.96
2023-05-17T21:25:29.450Z,72.63
2023-05-17T21:27:57.251Z,73.20
2023-05-17T21:30:24.506Z,72.95
2023-05-17T21:32:52.155Z,72.77
2023-05-17T21:35:19.479Z,72.99
2023-05-17T21:37:47.907Z,73.22
2023-05-17T21:40:15.166Z,74.76
2023-05-17T21:42:42.696Z,75.30
2023-05-17T21:45:11.582Z,75.25
2023-05-17T21:47:39.135Z,75.26
2023-05-17T21:50:07.186Z,76.85
2023-05-17T21:52:34.892Z,75.70
2023-05-17T21:55:02.293Z,75.47
2023-05-17T21:57:29.852Z,76.80
2023-05-17T21:59:57.085Z,79.75
2023-05-17T22:02:24.689Z,81.09
2023-05-17T22:04:53.223Z,78.94
2023-05-17T22:07:20.762Z,80.64
2023-05-17T22:09:48.278Z,80.02
2023-05-17T22:12:15.824Z,79.38
2023-05-17T22:14:45.511Z,79.60
2023-05-17T22:17:15.080Z,79.48
2023-05-17T22:19:45.314Z,79.65
2023-05-17T22:22:13.086Z,84.24
2023-05-17T22:24:40.307Z,82.70
2023-05-17T22:27:08.009Z,82.24
2023-05-17T22:29:35.379Z,81.74
2023-05-17T22:32:03.029Z,83.47
2023-05-17T22:34:30.396Z,82.41
2023-05-17T22:36:58.400Z,81.97
2023-05-17T22:39:25.771Z,82.35
2023-05-17T22:41:53.351Z,84.72
2023-05-17T22:44:21.956Z,83.84
2023-05-17T22:46:49.731Z,85.07
2023-05-17T22:49:17.085Z,83.51
2023-05-17T22:51:44.652Z,83.74
2023-05-17T22:54:11.984Z,82.22
2023-05-17T22:56:39.637Z,82.62
2023-05-17T22:59:06.862Z,83.19
2023-05-17T23:01:34.488Z,84.35
2023-05-17T23:04:01.998Z,82.75
2023-05-17T23:06:32.214Z,82.07
2023-05-17T23:09:00.353Z,83.01
2023-05-17T23:11:28.454Z,82.41
2023-05-17T23:13:55.869Z,83.14
2023-05-17T23:16:26.233Z,82.43
2023-05-17T23:18:54.036Z,81.64
2023-05-17T23:21:21.905Z,81.54
2023-05-17T23:23:50.018Z,82.52
2023-05-17T23:26:17.639Z,81.62
2023-05-17T23:28:44.899Z,81.73
2023-05-17T23:31:12.487Z,81.50
2023-05-17T23:33:42.719Z,82.26
2023-05-17T23:36:11.166Z,82.55
2023-05-17T23:38:38.473Z,85.78
2023-05-17T23:41:07.484Z,85.51
2023-05-17T23:43:34.856Z,86.07
2023-05-17T23:46:03.509Z,85.63
2023-05-17T23:48:30.770Z,86.11
2023-05-17T23:50:58.296Z,86.50
2023-05-17T23:53:26.307Z,88.59
2023-05-17T23:55:54.027Z,89.21
2023-05-17T23:58:21.407Z,88.39
